Gaz Venture — 3FLQ4 — position and weather

sailwx.info

Track history (hours):
 
Tides and Currents Weather Stations Pressure Air Temp Water Temp Dewpoint Dewpoint Depression Visibility Wind Speed Wind Dir Waves Ship Positions

Gaz Venture

Last reported at 2016-Dec-14 14:33 UTC. Time now 2017-Jan-23 18:49 UTC.
Position N 37°32' E 023°42'.
Warning: this ship's position is 40 days out of date.

Length 120 m; draft 5.6 m.

Type: Tanker. MMSI: 356141000.

Date/timePositionNaut miles runAvg speedWind from/ knotsBaromVisibWave heightAir tempDewpointWater temp
2016-Dec-14 14:33N 37°32' E 023°42'9 9.1
2016-Dec-14 13:33N 37°42' E 023°41'1313.4
2016-Dec-14 12:34N 37°53' E 023°32'0 0.2
2016-Dec-14 11:28N 37°52' E 023°32'0 0.0
2016-Dec-14 10:31N 37°52' E 023°32'0 0.0
2016-Dec-14 09:31N 37°52' E 023°32'0 0.0
2016-Dec-14 08:31N 37°52' E 023°32'0 0.0
2016-Dec-14 07:31N 37°52' E 023°32'0 0.0
2016-Dec-14 06:31N 37°52' E 023°32'0 0.0
2016-Dec-14 05:31N 37°52' E 023°32'3 3.0
2016-Dec-14 04:34N 37°52' E 023°35'9 8.9
2016-Dec-14 03:33N 37°45' E 023°43'1313.2
2016-Dec-14 02:33N 37°33' E 023°49'45812.4
2016-Dec-12 13:32N 34°32' E 032°30'1413.8
2016-Dec-12 12:33N 34°31' E 032°46'1414.0
2016-Dec-12 11:34N 34°32' E 033°03'8 8.1
2016-Dec-12 10:32N 34°40' E 033°05'0 0.0
2016-Dec-12 09:32N 34°40' E 033°05'0 0.0
2016-Dec-12 08:32N 34°40' E 033°05'0 0.1
2016-Dec-12 07:32N 34°40' E 033°05'0 0.0
2016-Dec-12 06:23N 34°40' E 033°05'0 0.1
2016-Dec-12 05:29N 34°40' E 033°05'0 0.0
2016-Dec-12 04:32N 34°40' E 033°05'0 0.0
2016-Dec-12 03:32N 34°40' E 033°05'0 0.0
2016-Dec-12 02:32N 34°40' E 033°05'0 0.0
2016-Dec-12 01:33N 34°40' E 033°05'1110.9
2016-Dec-12 00:33N 34°32' E 033°14'23 0.5
2016-Dec-10 02:11N 34°10' E 033°15'915.1
2016-Dec-10 01:33N 34°11' E 033°03'49613.8
2016-Dec-08 13:33N 37°35' E 023°45'1414.4
2016-Dec-08 12:34N 37°48' E 023°37'7 6.3
2016-Dec-08 11:31N 37°52' E 023°30'0 0.0
2016-Dec-08 10:31N 37°52' E 023°30'0 0.0
2016-Dec-08 09:31N 37°52' E 023°30'0 0.1
2016-Dec-08 08:31N 37°52' E 023°30'0 0.0
2016-Dec-08 07:31N 37°52' E 023°30'0 0.0
2016-Dec-08 06:31N 37°52' E 023°30'0 0.0
2016-Dec-08 05:32N 37°52' E 023°30'0 0.0
2016-Dec-08 04:31N 37°52' E 023°30'0 0.0
2016-Dec-08 03:31N 37°52' E 023°30'0 0.0
2016-Dec-08 02:31N 37°52' E 023°30'0 0.0
2016-Dec-08 01:31N 37°52' E 023°30'0 0.0
2016-Dec-08 00:31N 37°52' E 023°30'1 1.4
2016-Dec-07 23:33N 37°52' E 023°32'10 9.7
2016-Dec-07 22:33N 37°46' E 023°42'1313.1
2016-Dec-07 21:33N 37°33' E 023°46'  
2016-Dec-05 10:09N 35°58' E 014°49'0 0.0
2016-Dec-05 06:33N 35°58' E 014°49'0 0.0
2016-Dec-05 05:33N 35°58' E 014°49'0 0.0
2016-Dec-05 04:33N 35°58' E 014°49'0 0.0
2016-Dec-05 03:27N 35°58' E 014°49'0 0.0
2016-Dec-05 02:30N 35°58' E 014°49'0 0.0
2016-Dec-05 01:24N 35°58' E 014°49'0 0.0
2016-Dec-05 00:24N 35°58' E 014°49'0 0.1
2016-Dec-04 23:27N 35°58' E 014°49'0 0.1
2016-Dec-04 22:30N 35°58' E 014°49'0 0.0
2016-Dec-04 21:33N 35°58' E 014°49'0 0.0
2016-Dec-04 20:33N 35°58' E 014°49'0 0.0
2016-Dec-04 19:27N 35°58' E 014°49'0 0.0
2016-Dec-04 18:33N 35°58' E 014°49'0 0.0
2016-Dec-04 17:33N 35°58' E 014°49'0 0.0
2016-Dec-04 16:33N 35°58' E 014°49'0 0.0
2016-Dec-04 15:33N 35°58' E 014°49'0 0.0
2016-Dec-04 14:33N 35°58' E 014°49'  
Track history (hours):
 
Tides and Currents Weather Stations Pressure Air Temp Water Temp Dewpoint Dewpoint Depression Visibility Wind Speed Wind Dir Waves Ship Positions

Gaz Venture

Last reported at 2016-Dec-14 14:33 UTC. Time now 2017-Jan-23 18:49 UTC.
Position N 37°32' E 023°42'.
Warning: this ship's position is 40 days out of date.

Length 120 m; draft 5.6 m.

Type: Tanker. MMSI: 356141000.

Date/timePositionNaut miles runAvg speedWind from/ knotsBaromVisibWave heightAir tempDewpointWater temp
2016-Dec-14 14:33N 37°32' E 023°42'9 9.1
2016-Dec-14 13:33N 37°42' E 023°41'1313.4
2016-Dec-14 12:34N 37°53' E 023°32'0 0.2
2016-Dec-14 11:28N 37°52' E 023°32'0 0.0
2016-Dec-14 10:31N 37°52' E 023°32'0 0.0
2016-Dec-14 09:31N 37°52' E 023°32'0 0.0
2016-Dec-14 08:31N 37°52' E 023°32'0 0.0
2016-Dec-14 07:31N 37°52' E 023°32'0 0.0
2016-Dec-14 06:31N 37°52' E 023°32'0 0.0
2016-Dec-14 05:31N 37°52' E 023°32'3 3.0
2016-Dec-14 04:34N 37°52' E 023°35'9 8.9
2016-Dec-14 03:33N 37°45' E 023°43'1313.2
2016-Dec-14 02:33N 37°33' E 023°49'45812.4
2016-Dec-12 13:32N 34°32' E 032°30'1413.8
2016-Dec-12 12:33N 34°31' E 032°46'1414.0
2016-Dec-12 11:34N 34°32' E 033°03'8 8.1
2016-Dec-12 10:32N 34°40' E 033°05'0 0.0
2016-Dec-12 09:32N 34°40' E 033°05'0 0.0
2016-Dec-12 08:32N 34°40' E 033°05'0 0.1
2016-Dec-12 07:32N 34°40' E 033°05'0 0.0
2016-Dec-12 06:23N 34°40' E 033°05'0 0.1
2016-Dec-12 05:29N 34°40' E 033°05'0 0.0
2016-Dec-12 04:32N 34°40' E 033°05'0 0.0
2016-Dec-12 03:32N 34°40' E 033°05'0 0.0
2016-Dec-12 02:32N 34°40' E 033°05'0 0.0
2016-Dec-12 01:33N 34°40' E 033°05'1110.9
2016-Dec-12 00:33N 34°32' E 033°14'23 0.5
2016-Dec-10 02:11N 34°10' E 033°15'915.1
2016-Dec-10 01:33N 34°11' E 033°03'49613.8
2016-Dec-08 13:33N 37°35' E 023°45'1414.4
2016-Dec-08 12:34N 37°48' E 023°37'7 6.3
2016-Dec-08 11:31N 37°52' E 023°30'0 0.0
2016-Dec-08 10:31N 37°52' E 023°30'0 0.0
2016-Dec-08 09:31N 37°52' E 023°30'0 0.1
2016-Dec-08 08:31N 37°52' E 023°30'0 0.0
2016-Dec-08 07:31N 37°52' E 023°30'0 0.0
2016-Dec-08 06:31N 37°52' E 023°30'0 0.0
2016-Dec-08 05:32N 37°52' E 023°30'0 0.0
2016-Dec-08 04:31N 37°52' E 023°30'0 0.0
2016-Dec-08 03:31N 37°52' E 023°30'0 0.0
2016-Dec-08 02:31N 37°52' E 023°30'0 0.0
2016-Dec-08 01:31N 37°52' E 023°30'0 0.0
2016-Dec-08 00:31N 37°52' E 023°30'1 1.4
2016-Dec-07 23:33N 37°52' E 023°32'10 9.7
2016-Dec-07 22:33N 37°46' E 023°42'1313.1
2016-Dec-07 21:33N 37°33' E 023°46'  
2016-Dec-05 10:09N 35°58' E 014°49'0 0.0
2016-Dec-05 06:33N 35°58' E 014°49'0 0.0
2016-Dec-05 05:33N 35°58' E 014°49'0 0.0
2016-Dec-05 04:33N 35°58' E 014°49'0 0.0
2016-Dec-05 03:27N 35°58' E 014°49'0 0.0
2016-Dec-05 02:30N 35°58' E 014°49'0 0.0
2016-Dec-05 01:24N 35°58' E 014°49'0 0.0
2016-Dec-05 00:24N 35°58' E 014°49'0 0.1
2016-Dec-04 23:27N 35°58' E 014°49'0 0.1
2016-Dec-04 22:30N 35°58' E 014°49'0 0.0
2016-Dec-04 21:33N 35°58' E 014°49'0 0.0
2016-Dec-04 20:33N 35°58' E 014°49'0 0.0
2016-Dec-04 19:27N 35°58' E 014°49'0 0.0
2016-Dec-04 18:33N 35°58' E 014°49'0 0.0
2016-Dec-04 17:33N 35°58' E 014°49'0 0.0
2016-Dec-04 16:33N 35°58' E 014°49'0 0.0
2016-Dec-04 15:33N 35°58' E 014°49'0 0.0
2016-Dec-04 14:33N 35°58' E 014°49'  

Dump ship's entire track history